Sonnblick Mtn, Austria
Current Conditions -  °F | °C
As of 6:20 PM on Tuesday 21 Oct 2014 (Local Time) from LOWS Reporting Station
Broken Clouds Broken Clouds  
Wind Chill: 59°   Ceiling: 10000
Heat Index: 59°   Visibility: 6mi
Dew Point: 55°   Wind: 5mph
Humidity: 88%   Direction: 80°E
Pressure: 29.77"   Gusts: NA
Location:  47.05°N, 12.95°E
Report Text: LOWS 211620Z 08004KT 040V160 9999 FEW035 SCT070 BKN100 15/13 Q1008 NOSIG
Loading
Personal Weather Stations






























Interactive Weather Map
Tropical Storm Tracking
New forecast layout! Learn more

10-Day Weather Forecast

Advertisements
Track Severe Weather on mobile